Accueil
METAR-TAF:

METAR-TAF

Aéroports :

Aéroport de Viterbe

Viterbe, Italie

latitude: 42-26N, longitude: 012-03E, altitude: 300 m

Observation

Le bulletin a été fait il y a 50 minutes, à 14:55 UTC
Vent 4 kt de ouest/sud-ouest
Température 13°C
Humidité 72%
Pression 1019 hPa
Visibilité 10 km ou plus
Quelques nuages à une hauteur de 2000 ft

METAR: LIRV 261455Z 25004KT 9999 FEW020 13/08 Q1019 RMK BKN SCT200 MON E SE CLD CIME NC VIS MIN 9999 WIND THR04 /////KT BLU

Heure: 16:45 (15:45 UTC)

Prévision

Le bulletin a été fait il y a 1 heure et 45 minutes, à 14:00 UTC
Prévision valable du 26 à 15 UTC au 26 à 24 UTC
Vent 6 kt de ouest/sud-ouest
Visibilité: 8000 m
Nuages épars à une hauteur de 2000 ft
Nuages épars à une hauteur de 4000 ft
Temporairement
du 26 à 15 UTC au 26 à 18 UTC
pluie

TAF: LIRV 261400Z 2615/2624 24006KT 8000 SCT020 SCT040 TEMPO 2615/2618 RA

Observations et prévisions météorologiques de plus de 4000 aéroports (messages METAR et TAF).

Les stations disponibles sont représentées par des disques jaunes et rouges sur la carte.

Passer la souris dessus pour voir le nom de la station.

Cliquer dessus pour voir les observations et prévisions météorologiques.

Pour changer de carte: cliquez sur les boutons verts avec une croix noire pour zoomer, sur le bouton vert avec un tiret pour effectuer un zoom arrière, ou sur les flèches vertes pour les cartes adjacentes.


METAR-TAF: